sensor_id;sensor_type;location;lat;lon;timestamp;temperature;humidity
2212;DHT22;48849;48.758;9.158;2022-09-12T00:00:06;18.10;99.90
2212;DHT22;48849;48.758;9.158;2022-09-12T00:02:34;18.00;99.90
2212;DHT22;48849;48.758;9.158;2022-09-12T00:05:01;18.10;99.90
2212;DHT22;48849;48.758;9.158;2022-09-12T00:07:28;18.10;99.90
2212;DHT22;48849;48.758;9.158;2022-09-12T00:09:55;18.00;99.90
2212;DHT22;48849;48.758;9.158;2022-09-12T00:12:22;18.00;99.90
2212;DHT22;48849;48.758;9.158;2022-09-12T00:14:48;18.00;99.90
2212;DHT22;48849;48.758;9.158;2022-09-12T00:17:15;18.20;99.90
2212;DHT22;48849;48.758;9.158;2022-09-12T00:19:43;18.00;99.90
2212;DHT22;48849;48.758;9.158;2022-09-12T00:22:10;18.20;99.90
2212;DHT22;48849;48.758;9.158;2022-09-12T00:24:36;18.20;99.90
2212;DHT22;48849;48.758;9.158;2022-09-12T00:27:05;18.10;99.90
2212;DHT22;48849;48.758;9.158;2022-09-12T00:29:32;18.20;99.90
2212;DHT22;48849;48.758;9.158;2022-09-12T00:31:59;18.10;99.90
2212;DHT22;48849;48.758;9.158;2022-09-12T00:34:25;18.00;99.90
2212;DHT22;48849;48.758;9.158;2022-09-12T00:36:53;18.40;99.90
2212;DHT22;48849;48.758;9.158;2022-09-12T00:39:20;18.10;99.90
2212;DHT22;48849;48.758;9.158;2022-09-12T00:41:47;18.10;99.90
2212;DHT22;48849;48.758;9.158;2022-09-12T00:44:46;18.20;99.90
2212;DHT22;48849;48.758;9.158;2022-09-12T00:47:17;18.00;99.90
2212;DHT22;48849;48.758;9.158;2022-09-12T00:49:47;17.90;99.90
2212;DHT22;48849;48.758;9.158;2022-09-12T00:52:20;18.00;99.90
2212;DHT22;48849;48.758;9.158;2022-09-12T00:54:52;17.90;99.90
2212;DHT22;48849;48.758;9.158;2022-09-12T00:57:23;17.80;99.90
2212;DHT22;48849;48.758;9.158;2022-09-12T00:59:53;17.80;99.90
2212;DHT22;48849;48.758;9.158;2022-09-12T01:02:21;17.80;99.90
2212;DHT22;48849;48.758;9.158;2022-09-12T01:04:48;17.80;99.90
2212;DHT22;48849;48.758;9.158;2022-09-12T01:07:17;17.80;99.90
2212;DHT22;48849;48.758;9.158;2022-09-12T01:09:45;17.70;99.90
2212;DHT22;48849;48.758;9.158;2022-09-12T01:12:14;17.80;99.90
2212;DHT22;48849;48.758;9.158;2022-09-12T01:14:41;18.10;99.90
2212;DHT22;48849;48.758;9.158;2022-09-12T01:17:11;17.70;99.90
2212;DHT22;48849;48.758;9.158;2022-09-12T01:23:23;17.70;99.90
2212;DHT22;48849;48.758;9.158;2022-09-12T01:26:02;17.70;99.90
2212;DHT22;48849;48.758;9.158;2022-09-12T01:28:49;17.70;99.90
2212;DHT22;48849;48.758;9.158;2022-09-12T01:31:25;17.70;99.90
2212;DHT22;48849;48.758;9.158;2022-09-12T01:34:05;18.10;99.90
2212;DHT22;48849;48.758;9.158;2022-09-12T01:36:41;17.60;99.90
2212;DHT22;48849;48.758;9.158;2022-09-12T01:39:19;17.60;99.90
2212;DHT22;48849;48.758;9.158;2022-09-12T01:41:57;17.60;99.90
2212;DHT22;48849;48.758;9.158;2022-09-12T01:44:33;17.60;99.90
2212;DHT22;48849;48.758;9.158;2022-09-12T01:47:05;17.60;99.90
2212;DHT22;48849;48.758;9.158;2022-09-12T01:49:37;17.60;99.90
2212;DHT22;48849;48.758;9.158;2022-09-12T01:52:13;17.60;99.90
2212;DHT22;48849;48.758;9.158;2022-09-12T01:54:45;17.60;99.90
2212;DHT22;48849;48.758;9.158;2022-09-12T01:57:18;17.60;99.90
2212;DHT22;48849;48.758;9.158;2022-09-12T01:59:47;17.60;99.90
2212;DHT22;48849;48.758;9.158;2022-09-12T02:02:20;17.60;99.90
2212;DHT22;48849;48.758;9.158;2022-09-12T02:04:51;17.50;99.90
2212;DHT22;48849;48.758;9.158;2022-09-12T02:07:22;17.40;99.90
2212;DHT22;48849;48.758;9.158;2022-09-12T02:09:56;17.40;99.90
2212;DHT22;48849;48.758;9.158;2022-09-12T02:12:28;17.50;99.90
2212;DHT22;48849;48.758;9.158;2022-09-12T02:15:00;17.50;99.90
2212;DHT22;48849;48.758;9.158;2022-09-12T02:17:29;17.50;99.90
2212;DHT22;48849;48.758;9.158;2022-09-12T02:20:03;17.50;99.90
2212;DHT22;48849;48.758;9.158;2022-09-12T02:22:35;17.40;99.90
2212;DHT22;48849;48.758;9.158;2022-09-12T02:25:04;17.40;99.90
2212;DHT22;48849;48.758;9.158;2022-09-12T02:27:36;17.40;99.90
2212;DHT22;48849;48.758;9.158;2022-09-12T02:30:04;17.40;99.90
2212;DHT22;48849;48.758;9.158;2022-09-12T02:32:36;17.50;99.90
2212;DHT22;48849;48.758;9.158;2022-09-12T02:35:07;17.50;99.90
2212;DHT22;48849;48.758;9.158;2022-09-12T02:37:51;17.60;99.90
2212;DHT22;48849;48.758;9.158;2022-09-12T02:40:21;17.40;99.90
2212;DHT22;48849;48.758;9.158;2022-09-12T02:42:48;17.50;99.90
2212;DHT22;48849;48.758;9.158;2022-09-12T02:45:16;17.50;99.90
2212;DHT22;48849;48.758;9.158;2022-09-12T02:47:47;17.40;99.90
2212;DHT22;48849;48.758;9.158;2022-09-12T02:50:16;17.40;99.90
2212;DHT22;48849;48.758;9.158;2022-09-12T02:52:43;17.50;99.90
2212;DHT22;48849;48.758;9.158;2022-09-12T02:55:11;17.40;99.90
2212;DHT22;48849;48.758;9.158;2022-09-12T02:57:39;17.30;99.90
2212;DHT22;48849;48.758;9.158;2022-09-12T03:00:07;17.30;99.90
2212;DHT22;48849;48.758;9.158;2022-09-12T03:02:49;17.40;99.90
2212;DHT22;48849;48.758;9.158;2022-09-12T03:05:23;17.40;99.90
2212;DHT22;48849;48.758;9.158;2022-09-12T03:08:14;17.40;99.90
2212;DHT22;48849;48.758;9.158;2022-09-12T03:10:56;17.40;99.90
2212;DHT22;48849;48.758;9.158;2022-09-12T03:13:34;17.30;99.90
2212;DHT22;48849;48.758;9.158;2022-09-12T03:16:14;17.30;99.90
2212;DHT22;48849;48.758;9.158;2022-09-12T03:18:50;17.30;99.90
2212;DHT22;48849;48.758;9.158;2022-09-12T03:21:22;17.20;99.90
2212;DHT22;48849;48.758;9.158;2022-09-12T03:24:03;17.10;99.90
2212;DHT22;48849;48.758;9.158;2022-09-12T03:26:35;17.20;99.90
2212;DHT22;48849;48.758;9.158;2022-09-12T03:29:05;17.20;99.90
2212;DHT22;48849;48.758;9.158;2022-09-12T03:31:32;17.20;99.90
2212;DHT22;48849;48.758;9.158;2022-09-12T03:34:01;17.10;99.90
2212;DHT22;48849;48.758;9.158;2022-09-12T03:36:28;17.10;99.90
2212;DHT22;48849;48.758;9.158;2022-09-12T03:38:55;17.10;99.90
2212;DHT22;48849;48.758;9.158;2022-09-12T03:41:22;17.10;99.90
2212;DHT22;48849;48.758;9.158;2022-09-12T03:43:48;17.20;99.90
2212;DHT22;48849;48.758;9.158;2022-09-12T03:46:15;17.10;99.90
2212;DHT22;48849;48.758;9.158;2022-09-12T03:48:42;17.20;99.90
2212;DHT22;48849;48.758;9.158;2022-09-12T03:51:10;17.10;99.90
2212;DHT22;48849;48.758;9.158;2022-09-12T03:53:37;17.10;99.90
2212;DHT22;48849;48.758;9.158;2022-09-12T03:56:09;17.10;99.90
2212;DHT22;48849;48.758;9.158;2022-09-12T03:58:36;17.10;99.90
2212;DHT22;48849;48.758;9.158;2022-09-12T04:01:07;17.10;99.90
2212;DHT22;48849;48.758;9.158;2022-09-12T04:03:37;17.00;99.90
2212;DHT22;48849;48.758;9.158;2022-09-12T04:06:04;17.10;99.90
2212;DHT22;48849;48.758;9.158;2022-09-12T04:08:32;17.00;99.90
2212;DHT22;48849;48.758;9.158;2022-09-12T04:11:03;17.00;99.90
2212;DHT22;48849;48.758;9.158;2022-09-12T04:13:30;17.00;99.90
2212;DHT22;48849;48.758;9.158;2022-09-12T04:15:56;16.90;99.90
2212;DHT22;48849;48.758;9.158;2022-09-12T04:18:23;16.90;99.90
2212;DHT22;48849;48.758;9.158;2022-09-12T04:20:50;16.90;99.90
2212;DHT22;48849;48.758;9.158;2022-09-12T04:23:17;16.90;99.90
2212;DHT22;48849;48.758;9.158;2022-09-12T04:25:52;16.90;99.90
2212;DHT22;48849;48.758;9.158;2022-09-12T04:28:19;16.90;99.90
2212;DHT22;48849;48.758;9.158;2022-09-12T04:30:46;16.80;99.90
2212;DHT22;48849;48.758;9.158;2022-09-12T04:33:13;16.80;99.90
2212;DHT22;48849;48.758;9.158;2022-09-12T04:35:40;16.80;99.90
2212;DHT22;48849;48.758;9.158;2022-09-12T04:38:07;16.90;99.90
2212;DHT22;48849;48.758;9.158;2022-09-12T04:40:34;16.80;99.90
2212;DHT22;48849;48.758;9.158;2022-09-12T04:43:02;16.70;99.90
2212;DHT22;48849;48.758;9.158;2022-09-12T04:45:30;16.80;99.90
2212;DHT22;48849;48.758;9.158;2022-09-12T04:47:57;16.80;99.90
2212;DHT22;48849;48.758;9.158;2022-09-12T04:50:24;16.80;99.90
2212;DHT22;48849;48.758;9.158;2022-09-12T04:52:51;16.80;99.90
2212;DHT22;48849;48.758;9.158;2022-09-12T04:55:18;16.70;99.90
2212;DHT22;48849;48.758;9.158;2022-09-12T04:57:45;16.70;99.90
2212;DHT22;48849;48.758;9.158;2022-09-12T05:00:13;16.70;99.90
2212;DHT22;48849;48.758;9.158;2022-09-12T05:02:41;16.70;99.90
2212;DHT22;48849;48.758;9.158;2022-09-12T05:05:08;16.70;99.90
2212;DHT22;48849;48.758;9.158;2022-09-12T05:07:36;16.70;99.90
2212;DHT22;48849;48.758;9.158;2022-09-12T05:10:03;16.70;99.90
2212;DHT22;48849;48.758;9.158;2022-09-12T05:12:30;16.70;99.90
2212;DHT22;48849;48.758;9.158;2022-09-12T05:14:57;16.70;99.90
2212;DHT22;48849;48.758;9.158;2022-09-12T05:17:25;16.70;99.90
2212;DHT22;48849;48.758;9.158;2022-09-12T05:19:54;16.70;99.90
2212;DHT22;48849;48.758;9.158;2022-09-12T05:22:20;16.70;99.90
2212;DHT22;48849;48.758;9.158;2022-09-12T05:24:47;16.70;99.90
2212;DHT22;48849;48.758;9.158;2022-09-12T05:27:14;16.70;99.90
2212;DHT22;48849;48.758;9.158;2022-09-12T05:29:40;16.70;99.90
2212;DHT22;48849;48.758;9.158;2022-09-12T05:32:08;16.70;99.90
2212;DHT22;48849;48.758;9.158;2022-09-12T05:34:38;16.60;99.90
2212;DHT22;48849;48.758;9.158;2022-09-12T05:37:05;16.60;99.90
2212;DHT22;48849;48.758;9.158;2022-09-12T05:39:32;16.60;99.90
2212;DHT22;48849;48.758;9.158;2022-09-12T05:41:59;16.60;99.90
2212;DHT22;48849;48.758;9.158;2022-09-12T05:44:26;16.60;99.90
2212;DHT22;48849;48.758;9.158;2022-09-12T05:46:53;16.60;99.90
2212;DHT22;48849;48.758;9.158;2022-09-12T05:49:19;16.60;99.90
2212;DHT22;48849;48.758;9.158;2022-09-12T05:51:48;16.60;99.90
2212;DHT22;48849;48.758;9.158;2022-09-12T05:54:18;16.60;99.90
2212;DHT22;48849;48.758;9.158;2022-09-12T05:56:46;16.70;99.90
2212;DHT22;48849;48.758;9.158;2022-09-12T05:59:15;16.60;99.90
2212;DHT22;48849;48.758;9.158;2022-09-12T06:01:42;16.60;99.90
2212;DHT22;48849;48.758;9.158;2022-09-12T06:04:10;16.60;99.90
2212;DHT22;48849;48.758;9.158;2022-09-12T06:06:38;16.60;99.90
2212;DHT22;48849;48.758;9.158;2022-09-12T06:09:07;16.60;99.90
2212;DHT22;48849;48.758;9.158;2022-09-12T06:11:36;16.70;99.90
2212;DHT22;48849;48.758;9.158;2022-09-12T06:14:04;16.70;99.90
2212;DHT22;48849;48.758;9.158;2022-09-12T06:16:32;16.70;99.90
2212;DHT22;48849;48.758;9.158;2022-09-12T06:19:01;16.80;99.90
2212;DHT22;48849;48.758;9.158;2022-09-12T06:21:29;16.80;99.90
2212;DHT22;48849;48.758;9.158;2022-09-12T06:23:56;16.90;99.90
2212;DHT22;48849;48.758;9.158;2022-09-12T06:26:26;16.90;99.90
2212;DHT22;48849;48.758;9.158;2022-09-12T06:28:54;16.90;99.90
2212;DHT22;48849;48.758;9.158;2022-09-12T06:31:23;16.90;99.90
2212;DHT22;48849;48.758;9.158;2022-09-12T06:33:52;17.00;99.90
2212;DHT22;48849;48.758;9.158;2022-09-12T06:36:21;17.10;99.90
2212;DHT22;48849;48.758;9.158;2022-09-12T06:38:53;17.10;99.90
2212;DHT22;48849;48.758;9.158;2022-09-12T06:41:20;17.30;99.90
2212;DHT22;48849;48.758;9.158;2022-09-12T06:43:49;17.30;99.90
2212;DHT22;48849;48.758;9.158;2022-09-12T06:46:15;17.30;99.90
2212;DHT22;48849;48.758;9.158;2022-09-12T06:48:43;17.30;99.90
2212;DHT22;48849;48.758;9.158;2022-09-12T06:51:11;17.40;99.90
2212;DHT22;48849;48.758;9.158;2022-09-12T06:53:39;17.40;99.90
2212;DHT22;48849;48.758;9.158;2022-09-12T06:56:09;17.40;99.90
2212;DHT22;48849;48.758;9.158;2022-09-12T06:58:37;17.50;99.90
2212;DHT22;48849;48.758;9.158;2022-09-12T07:01:07;17.50;99.90
2212;DHT22;48849;48.758;9.158;2022-09-12T07:03:34;17.50;99.90
2212;DHT22;48849;48.758;9.158;2022-09-12T07:06:02;17.60;99.90
2212;DHT22;48849;48.758;9.158;2022-09-12T07:08:29;17.60;99.90
2212;DHT22;48849;48.758;9.158;2022-09-12T07:10:57;17.60;99.90
2212;DHT22;48849;48.758;9.158;2022-09-12T07:13:25;17.60;99.90
2212;DHT22;48849;48.758;9.158;2022-09-12T07:15:52;17.70;99.90
2212;DHT22;48849;48.758;9.158;2022-09-12T07:18:20;17.70;99.90
2212;DHT22;48849;48.758;9.158;2022-09-12T07:20:48;17.70;99.90
2212;DHT22;48849;48.758;9.158;2022-09-12T07:23:14;17.80;99.90
2212;DHT22;48849;48.758;9.158;2022-09-12T07:25:41;17.80;99.90
2212;DHT22;48849;48.758;9.158;2022-09-12T07:28:08;17.80;99.90
2212;DHT22;48849;48.758;9.158;2022-09-12T07:30:35;17.90;99.90
2212;DHT22;48849;48.758;9.158;2022-09-12T07:33:02;17.90;99.90
2212;DHT22;48849;48.758;9.158;2022-09-12T07:35:33;17.90;99.90
2212;DHT22;48849;48.758;9.158;2022-09-12T07:37:59;18.00;99.90
2212;DHT22;48849;48.758;9.158;2022-09-12T07:40:26;18.00;99.90
2212;DHT22;48849;48.758;9.158;2022-09-12T07:45:23;18.00;99.90
2212;DHT22;48849;48.758;9.158;2022-09-12T07:47:52;18.00;99.90
2212;DHT22;48849;48.758;9.158;2022-09-12T07:50:19;18.10;99.90
2212;DHT22;48849;48.758;9.158;2022-09-12T07:52:47;18.10;99.90
2212;DHT22;48849;48.758;9.158;2022-09-12T07:55:15;18.10;99.90
2212;DHT22;48849;48.758;9.158;2022-09-12T07:57:41;18.10;99.90
2212;DHT22;48849;48.758;9.158;2022-09-12T08:00:09;18.20;99.90
2212;DHT22;48849;48.758;9.158;2022-09-12T08:02:36;18.20;99.90
2212;DHT22;48849;48.758;9.158;2022-09-12T08:05:03;18.20;99.90
2212;DHT22;48849;48.758;9.158;2022-09-12T08:07:29;18.30;99.90
2212;DHT22;48849;48.758;9.158;2022-09-12T08:09:57;18.30;99.90
2212;DHT22;48849;48.758;9.158;2022-09-12T08:12:25;18.30;99.90
2212;DHT22;48849;48.758;9.158;2022-09-12T08:14:52;18.70;99.90
2212;DHT22;48849;48.758;9.158;2022-09-12T08:17:19;18.40;99.90
2212;DHT22;48849;48.758;9.158;2022-09-12T08:19:46;18.40;99.90
2212;DHT22;48849;48.758;9.158;2022-09-12T08:22:13;18.50;99.90
2212;DHT22;48849;48.758;9.158;2022-09-12T08:24:39;18.50;99.90
2212;DHT22;48849;48.758;9.158;2022-09-12T08:27:08;18.60;99.90
2212;DHT22;48849;48.758;9.158;2022-09-12T08:29:35;18.60;99.90
2212;DHT22;48849;48.758;9.158;2022-09-12T08:32:02;18.60;99.90
2212;DHT22;48849;48.758;9.158;2022-09-12T08:34:29;18.60;99.90
2212;DHT22;48849;48.758;9.158;2022-09-12T08:36:55;18.70;99.90
2212;DHT22;48849;48.758;9.158;2022-09-12T08:39:22;18.70;99.90
2212;DHT22;48849;48.758;9.158;2022-09-12T08:41:57;18.70;99.90
2212;DHT22;48849;48.758;9.158;2022-09-12T08:44:52;18.80;99.90
2212;DHT22;48849;48.758;9.158;2022-09-12T08:47:25;18.80;99.90
2212;DHT22;48849;48.758;9.158;2022-09-12T08:49:59;18.80;99.90
2212;DHT22;48849;48.758;9.158;2022-09-12T08:52:29;18.80;99.90
2212;DHT22;48849;48.758;9.158;2022-09-12T08:54:59;18.80;99.90
2212;DHT22;48849;48.758;9.158;2022-09-12T08:57:27;18.90;99.90
2212;DHT22;48849;48.758;9.158;2022-09-12T08:59:55;18.90;99.90
2212;DHT22;48849;48.758;9.158;2022-09-12T09:02:42;19.00;99.90
2212;DHT22;48849;48.758;9.158;2022-09-12T09:05:18;19.00;99.90
2212;DHT22;48849;48.758;9.158;2022-09-12T09:08:12;19.10;99.90
2212;DHT22;48849;48.758;9.158;2022-09-12T09:10:48;19.10;99.90
2212;DHT22;48849;48.758;9.158;2022-09-12T09:13:32;19.10;99.90
2212;DHT22;48849;48.758;9.158;2022-09-12T09:16:24;19.20;99.90
2212;DHT22;48849;48.758;9.158;2022-09-12T09:18:53;19.20;99.90
2212;DHT22;48849;48.758;9.158;2022-09-12T09:21:23;19.30;99.90
2212;DHT22;48849;48.758;9.158;2022-09-12T09:23:55;19.30;99.90
2212;DHT22;48849;48.758;9.158;2022-09-12T09:26:28;19.40;99.90
2212;DHT22;48849;48.758;9.158;2022-09-12T09:28:59;19.30;99.90
2212;DHT22;48849;48.758;9.158;2022-09-12T09:31:33;19.40;99.90
2212;DHT22;48849;48.758;9.158;2022-09-12T09:34:08;19.40;99.90
2212;DHT22;48849;48.758;9.158;2022-09-12T09:36:47;19.50;99.90
2212;DHT22;48849;48.758;9.158;2022-09-12T09:39:23;19.50;99.90
2212;DHT22;48849;48.758;9.158;2022-09-12T09:42:10;19.60;99.90
2212;DHT22;48849;48.758;9.158;2022-09-12T09:44:39;19.60;99.90
2212;DHT22;48849;48.758;9.158;2022-09-12T09:47:10;19.60;99.90
2212;DHT22;48849;48.758;9.158;2022-09-12T09:49:38;19.70;99.90
2212;DHT22;48849;48.758;9.158;2022-09-12T09:52:06;19.70;99.90
2212;DHT22;48849;48.758;9.158;2022-09-12T09:54:37;19.70;99.90
2212;DHT22;48849;48.758;9.158;2022-09-12T09:57:42;19.70;99.90
2212;DHT22;48849;48.758;9.158;2022-09-12T10:00:24;19.80;99.90
2212;DHT22;48849;48.758;9.158;2022-09-12T10:03:03;19.80;99.90
2212;DHT22;48849;48.758;9.158;2022-09-12T10:05:33;20.00;99.90
2212;DHT22;48849;48.758;9.158;2022-09-12T10:08:03;20.00;99.90
2212;DHT22;48849;48.758;9.158;2022-09-12T10:10:32;20.00;99.90
2212;DHT22;48849;48.758;9.158;2022-09-12T10:13:23;20.00;99.90
2212;DHT22;48849;48.758;9.158;2022-09-12T10:15:56;20.10;99.90
2212;DHT22;48849;48.758;9.158;2022-09-12T10:18:36;20.00;99.90
2212;DHT22;48849;48.758;9.158;2022-09-12T10:21:20;20.20;99.90
2212;DHT22;48849;48.758;9.158;2022-09-12T10:23:56;20.20;99.90
2212;DHT22;48849;48.758;9.158;2022-09-12T10:26:26;20.30;99.90
2212;DHT22;48849;48.758;9.158;2022-09-12T10:29:03;20.30;99.90
2212;DHT22;48849;48.758;9.158;2022-09-12T10:31:40;20.30;99.90
2212;DHT22;48849;48.758;9.158;2022-09-12T10:34:20;20.50;99.90
2212;DHT22;48849;48.758;9.158;2022-09-12T10:36:51;20.60;99.90
2212;DHT22;48849;48.758;9.158;2022-09-12T10:39:19;20.50;99.90
2212;DHT22;48849;48.758;9.158;2022-09-12T10:41:46;20.50;99.90
2212;DHT22;48849;48.758;9.158;2022-09-12T10:44:16;20.50;99.90
2212;DHT22;48849;48.758;9.158;2022-09-12T10:46:43;20.50;99.90
2212;DHT22;48849;48.758;9.158;2022-09-12T10:49:23;20.60;99.90
2212;DHT22;48849;48.758;9.158;2022-09-12T10:51:50;20.60;99.90
2212;DHT22;48849;48.758;9.158;2022-09-12T10:54:21;20.70;99.90
2212;DHT22;48849;48.758;9.158;2022-09-12T10:57:18;20.70;99.90
2212;DHT22;48849;48.758;9.158;2022-09-12T11:00:02;20.70;99.90
2212;DHT22;48849;48.758;9.158;2022-09-12T11:02:39;20.80;99.90
2212;DHT22;48849;48.758;9.158;2022-09-12T11:05:11;20.90;99.90
2212;DHT22;48849;48.758;9.158;2022-09-12T11:07:44;21.00;99.90
2212;DHT22;48849;48.758;9.158;2022-09-12T11:10:29;21.00;99.90
2212;DHT22;48849;48.758;9.158;2022-09-12T11:13:09;21.00;99.90
2212;DHT22;48849;48.758;9.158;2022-09-12T11:15:56;21.10;99.90
2212;DHT22;48849;48.758;9.158;2022-09-12T11:18:56;21.10;99.90
2212;DHT22;48849;48.758;9.158;2022-09-12T11:21:37;21.20;99.90
2212;DHT22;48849;48.758;9.158;2022-09-12T11:24:37;21.20;99.90
2212;DHT22;48849;48.758;9.158;2022-09-12T11:27:20;21.30;99.90
2212;DHT22;48849;48.758;9.158;2022-09-12T11:29:56;21.40;99.90
2212;DHT22;48849;48.758;9.158;2022-09-12T11:32:52;21.50;99.90
2212;DHT22;48849;48.758;9.158;2022-09-12T11:35:26;21.50;99.90
2212;DHT22;48849;48.758;9.158;2022-09-12T11:38:14;21.80;99.90
2212;DHT22;48849;48.758;9.158;2022-09-12T11:40:48;21.90;99.90
2212;DHT22;48849;48.758;9.158;2022-09-12T11:43:24;22.10;99.90
2212;DHT22;48849;48.758;9.158;2022-09-12T11:45:55;22.70;99.90
2212;DHT22;48849;48.758;9.158;2022-09-12T11:48:34;22.40;99.90
2212;DHT22;48849;48.758;9.158;2022-09-12T11:51:05;22.70;99.90
2212;DHT22;48849;48.758;9.158;2022-09-12T11:53:37;22.90;99.90
2212;DHT22;48849;48.758;9.158;2022-09-12T11:56:09;23.20;99.90
2212;DHT22;48849;48.758;9.158;2022-09-12T11:58:39;23.40;99.90
2212;DHT22;48849;48.758;9.158;2022-09-12T12:01:12;23.60;99.90
2212;DHT22;48849;48.758;9.158;2022-09-12T12:03:43;23.80;99.90
2212;DHT22;48849;48.758;9.158;2022-09-12T12:06:14;23.80;99.90
2212;DHT22;48849;48.758;9.158;2022-09-12T12:08:43;23.90;99.90
2212;DHT22;48849;48.758;9.158;2022-09-12T12:11:12;24.00;99.90
2212;DHT22;48849;48.758;9.158;2022-09-12T12:13:44;24.10;99.90
2212;DHT22;48849;48.758;9.158;2022-09-12T12:16:22;24.20;99.90
2212;DHT22;48849;48.758;9.158;2022-09-12T12:18:55;24.20;99.90
2212;DHT22;48849;48.758;9.158;2022-09-12T12:21:35;24.30;99.90
2212;DHT22;48849;48.758;9.158;2022-09-12T12:24:13;24.30;99.90
2212;DHT22;48849;48.758;9.158;2022-09-12T12:26:58;24.30;99.90
2212;DHT22;48849;48.758;9.158;2022-09-12T12:29:39;24.40;99.90
2212;DHT22;48849;48.758;9.158;2022-09-12T12:32:24;24.40;99.90
2212;DHT22;48849;48.758;9.158;2022-09-12T12:37:51;24.40;99.90
2212;DHT22;48849;48.758;9.158;2022-09-12T12:40:25;24.50;99.90
2212;DHT22;48849;48.758;9.158;2022-09-12T12:46:09;24.50;99.90
2212;DHT22;48849;48.758;9.158;2022-09-12T12:48:52;24.50;99.90
2212;DHT22;48849;48.758;9.158;2022-09-12T12:51:37;24.40;99.90
2212;DHT22;48849;48.758;9.158;2022-09-12T12:54:26;24.40;99.90
2212;DHT22;48849;48.758;9.158;2022-09-12T12:57:01;24.30;99.90
2212;DHT22;48849;48.758;9.158;2022-09-12T12:59:29;24.30;99.90
2212;DHT22;48849;48.758;9.158;2022-09-12T13:01:57;24.30;99.90
2212;DHT22;48849;48.758;9.158;2022-09-12T13:04:27;24.30;99.90
2212;DHT22;48849;48.758;9.158;2022-09-12T13:06:59;24.00;99.90
2212;DHT22;48849;48.758;9.158;2022-09-12T13:09:31;24.00;99.90
2212;DHT22;48849;48.758;9.158;2022-09-12T13:12:03;23.90;99.90
2212;DHT22;48849;48.758;9.158;2022-09-12T13:14:35;23.80;99.90
2212;DHT22;48849;48.758;9.158;2022-09-12T13:17:04;23.70;99.90
2212;DHT22;48849;48.758;9.158;2022-09-12T13:19:35;23.70;99.90
2212;DHT22;48849;48.758;9.158;2022-09-12T13:22:05;23.60;99.90
2212;DHT22;48849;48.758;9.158;2022-09-12T13:24:32;23.60;99.90
2212;DHT22;48849;48.758;9.158;2022-09-12T13:27:01;23.50;99.90
2212;DHT22;48849;48.758;9.158;2022-09-12T13:29:28;23.50;99.90
2212;DHT22;48849;48.758;9.158;2022-09-12T13:31:57;23.40;99.90
2212;DHT22;48849;48.758;9.158;2022-09-12T13:34:26;23.40;99.90
2212;DHT22;48849;48.758;9.158;2022-09-12T13:39:48;23.30;99.90
2212;DHT22;48849;48.758;9.158;2022-09-12T13:42:39;23.20;99.90
2212;DHT22;48849;48.758;9.158;2022-09-12T13:45:13;23.10;99.90
2212;DHT22;48849;48.758;9.158;2022-09-12T13:47:42;23.10;99.90
2212;DHT22;48849;48.758;9.158;2022-09-12T13:50:16;23.00;99.90
2212;DHT22;48849;48.758;9.158;2022-09-12T13:52:47;23.00;99.90
2212;DHT22;48849;48.758;9.158;2022-09-12T13:55:26;23.10;99.90
2212;DHT22;48849;48.758;9.158;2022-09-12T13:57:56;23.00;99.90
2212;DHT22;48849;48.758;9.158;2022-09-12T14:00:24;23.00;99.90
2212;DHT22;48849;48.758;9.158;2022-09-12T14:02:53;22.90;99.90
2212;DHT22;48849;48.758;9.158;2022-09-12T14:05:42;22.80;99.90
2212;DHT22;48849;48.758;9.158;2022-09-12T14:08:11;22.80;99.90
2212;DHT22;48849;48.758;9.158;2022-09-12T14:10:42;22.70;99.90
2212;DHT22;48849;48.758;9.158;2022-09-12T14:13:11;22.60;99.90
2212;DHT22;48849;48.758;9.158;2022-09-12T14:15:43;22.70;99.90
2212;DHT22;48849;48.758;9.158;2022-09-12T14:18:21;22.80;99.90
2212;DHT22;48849;48.758;9.158;2022-09-12T14:20:49;22.50;99.90
2212;DHT22;48849;48.758;9.158;2022-09-12T14:23:24;22.50;99.90
2212;DHT22;48849;48.758;9.158;2022-09-12T14:25:55;22.50;99.90
2212;DHT22;48849;48.758;9.158;2022-09-12T14:28:24;22.50;99.90
2212;DHT22;48849;48.758;9.158;2022-09-12T14:31:01;22.40;99.90
2212;DHT22;48849;48.758;9.158;2022-09-12T14:33:32;22.40;99.90
2212;DHT22;48849;48.758;9.158;2022-09-12T14:36:10;22.30;99.90
2212;DHT22;48849;48.758;9.158;2022-09-12T14:38:41;22.30;99.90
2212;DHT22;48849;48.758;9.158;2022-09-12T14:41:11;22.30;99.90
2212;DHT22;48849;48.758;9.158;2022-09-12T14:43:41;22.20;99.90
2212;DHT22;48849;48.758;9.158;2022-09-12T14:46:15;22.20;99.90
2212;DHT22;48849;48.758;9.158;2022-09-12T14:48:47;22.20;99.90
2212;DHT22;48849;48.758;9.158;2022-09-12T14:51:19;22.10;99.90
2212;DHT22;48849;48.758;9.158;2022-09-12T14:53:47;22.10;99.90
2212;DHT22;48849;48.758;9.158;2022-09-12T14:56:16;22.10;99.90
2212;DHT22;48849;48.758;9.158;2022-09-12T14:58:45;22.10;99.90
2212;DHT22;48849;48.758;9.158;2022-09-12T15:01:23;22.10;99.90
2212;DHT22;48849;48.758;9.158;2022-09-12T15:03:52;22.00;99.90
2212;DHT22;48849;48.758;9.158;2022-09-12T15:06:22;22.00;99.90
2212;DHT22;48849;48.758;9.158;2022-09-12T15:08:51;22.00;99.90
2212;DHT22;48849;48.758;9.158;2022-09-12T15:11:20;22.00;99.90
2212;DHT22;48849;48.758;9.158;2022-09-12T15:13:47;22.00;99.90
2212;DHT22;48849;48.758;9.158;2022-09-12T15:16:14;21.90;99.90
2212;DHT22;48849;48.758;9.158;2022-09-12T15:18:41;21.90;99.90
2212;DHT22;48849;48.758;9.158;2022-09-12T15:21:11;21.90;99.90
2212;DHT22;48849;48.758;9.158;2022-09-12T15:23:41;21.90;99.90
2212;DHT22;48849;48.758;9.158;2022-09-12T15:26:10;21.90;99.90
2212;DHT22;48849;48.758;9.158;2022-09-12T15:28:39;21.90;99.90
2212;DHT22;48849;48.758;9.158;2022-09-12T15:31:10;21.80;99.90
2212;DHT22;48849;48.758;9.158;2022-09-12T15:33:37;21.80;99.90
2212;DHT22;48849;48.758;9.158;2022-09-12T15:36:12;21.80;99.90
2212;DHT22;48849;48.758;9.158;2022-09-12T15:38:40;21.70;99.90
2212;DHT22;48849;48.758;9.158;2022-09-12T15:41:10;21.70;99.90
2212;DHT22;48849;48.758;9.158;2022-09-12T15:43:38;21.70;99.90
2212;DHT22;48849;48.758;9.158;2022-09-12T15:46:05;21.70;99.90
2212;DHT22;48849;48.758;9.158;2022-09-12T15:48:32;21.70;99.90
2212;DHT22;48849;48.758;9.158;2022-09-12T15:50:59;21.70;99.90
2212;DHT22;48849;48.758;9.158;2022-09-12T15:53:26;21.70;99.90
2212;DHT22;48849;48.758;9.158;2022-09-12T15:55:53;21.70;99.90
2212;DHT22;48849;48.758;9.158;2022-09-12T15:58:20;21.60;99.90
2212;DHT22;48849;48.758;9.158;2022-09-12T16:00:48;21.60;99.90
2212;DHT22;48849;48.758;9.158;2022-09-12T16:03:20;21.60;99.90
2212;DHT22;48849;48.758;9.158;2022-09-12T16:05:47;21.60;99.90
2212;DHT22;48849;48.758;9.158;2022-09-12T16:08:14;21.60;99.90
2212;DHT22;48849;48.758;9.158;2022-09-12T16:10:42;21.60;99.90
2212;DHT22;48849;48.758;9.158;2022-09-12T16:13:09;21.60;99.90
2212;DHT22;48849;48.758;9.158;2022-09-12T16:15:36;21.50;99.90
2212;DHT22;48849;48.758;9.158;2022-09-12T16:18:04;21.50;99.90
2212;DHT22;48849;48.758;9.158;2022-09-12T16:20:31;21.50;99.90
2212;DHT22;48849;48.758;9.158;2022-09-12T16:22:57;21.50;99.90
2212;DHT22;48849;48.758;9.158;2022-09-12T16:25:24;21.50;99.90